createdAt,value
2022-10-22T00:01:07.331Z,54.20
2022-10-22T00:03:39.137Z,53.30
2022-10-22T00:06:07.325Z,52.60
2022-10-22T00:08:35.058Z,59.90
2022-10-22T00:11:28.896Z,72.00
2022-10-22T00:13:57.842Z,53.70
2022-10-22T00:16:25.490Z,51.40
2022-10-22T00:18:53.313Z,61.50
2022-10-22T00:21:20.945Z,59.80
2022-10-22T00:23:49.155Z,60.50
2022-10-22T00:26:16.872Z,59.20
2022-10-22T00:28:44.637Z,67.20
2022-10-22T00:31:12.703Z,67.70
2022-10-22T00:33:40.474Z,58.40
2022-10-22T00:36:08.885Z,64.10
2022-10-22T00:38:36.508Z,55.20
2022-10-22T00:41:04.483Z,57.30
2022-10-22T00:43:32.298Z,76.90
2022-10-22T00:46:00.100Z,75.00
2022-10-22T00:48:33.567Z,265.50
2022-10-22T00:51:07.688Z,63.90
2022-10-22T00:53:50.795Z,61.00
2022-10-22T00:56:20.384Z,68.90
2022-10-22T00:58:53.752Z,64.40
2022-10-22T01:01:27.937Z,65.20
2022-10-22T01:03:56.223Z,96.30
2022-10-22T01:06:28.890Z,65.70
2022-10-22T01:09:28.154Z,71.60
2022-10-22T01:12:28.313Z,69.80
2022-10-22T01:15:18.370Z,74.80
2022-10-22T01:18:22.101Z,65.20
2022-10-22T01:21:16.430Z,70.70
2022-10-22T01:24:10.173Z,64.10
2022-10-22T01:27:08.685Z,64.90
2022-10-22T01:30:06.241Z,69.40
2022-10-22T01:32:48.580Z,63.60
2022-10-22T01:35:24.362Z,63.10
2022-10-22T01:38:03.645Z,69.10
2022-10-22T01:40:32.828Z,61.50
2022-10-22T01:43:08.360Z,61.90
2022-10-22T01:45:44.561Z,64.90
2022-10-22T01:48:45.843Z,65.00
2022-10-22T01:52:00.556Z,57.80
2022-10-22T01:54:45.043Z,64.90
2022-10-22T01:57:38.108Z,60.90
2022-10-22T02:03:06.271Z,55.80
2022-10-22T02:05:44.393Z,62.30
2022-10-22T02:08:17.877Z,63.40
2022-10-22T02:10:48.704Z,62.40
2022-10-22T02:13:23.255Z,67.60
2022-10-22T02:15:53.199Z,70.40
2022-10-22T02:18:26.977Z,69.50
2022-10-22T02:20:55.133Z,62.80
2022-10-22T02:23:23.152Z,66.40
2022-10-22T02:26:00.112Z,63.50
2022-10-22T02:28:49.749Z,59.60
2022-10-22T02:31:28.196Z,59.50
2022-10-22T02:34:04.637Z,68.10
2022-10-22T02:36:32.855Z,61.30
2022-10-22T02:39:01.536Z,63.10
2022-10-22T02:41:29.648Z,69.50
2022-10-22T02:43:57.310Z,66.40
2022-10-22T02:46:25.717Z,62.40
2022-10-22T02:48:53.606Z,70.70
2022-10-22T02:51:21.329Z,71.10
2022-10-22T02:53:48.966Z,71.10
2022-10-22T02:56:17.426Z,75.80
2022-10-22T02:58:45.118Z,78.30
2022-10-22T03:01:15.437Z,71.30
2022-10-22T03:03:44.083Z,74.80
2022-10-22T03:06:11.904Z,81.40
2022-10-22T03:08:40.680Z,85.00
2022-10-22T03:11:08.771Z,76.20
2022-10-22T03:13:37.015Z,82.90
2022-10-22T03:16:05.170Z,99.30
2022-10-22T03:18:32.870Z,91.30
2022-10-22T03:21:31.856Z,90.60
2022-10-22T03:24:04.810Z,102.80
2022-10-22T03:26:32.755Z,82.10
2022-10-22T03:29:00.932Z,89.20
2022-10-22T03:31:28.687Z,84.50
2022-10-22T03:33:56.394Z,96.00
2022-10-22T03:36:24.307Z,100.40
2022-10-22T03:38:52.094Z,99.60
2022-10-22T03:41:20.325Z,101.20
2022-10-22T03:43:52.855Z,96.10
2022-10-22T03:46:21.287Z,103.10
2022-10-22T03:48:49.010Z,103.70
2022-10-22T03:51:16.760Z,92.60
2022-10-22T03:53:44.446Z,113.90
2022-10-22T03:56:13.855Z,105.00
2022-10-22T03:58:42.309Z,112.50
2022-10-22T04:01:13.333Z,91.40
2022-10-22T04:03:41.352Z,105.20
2022-10-22T04:06:12.782Z,108.20
2022-10-22T04:08:43.139Z,98.20
2022-10-22T04:11:13.359Z,120.40
2022-10-22T04:13:41.348Z,110.70
2022-10-22T04:16:19.371Z,117.10
2022-10-22T04:18:49.997Z,105.30
2022-10-22T04:21:19.683Z,102.00
2022-10-22T04:23:50.635Z,93.50
2022-10-22T04:26:19.925Z,92.50
2022-10-22T04:28:49.779Z,92.30
2022-10-22T04:31:22.104Z,90.10
2022-10-22T04:33:57.755Z,96.30
2022-10-22T04:36:25.949Z,86.10
2022-10-22T04:39:04.241Z,83.40
2022-10-22T04:41:36.386Z,97.50
2022-10-22T04:44:06.068Z,90.40
2022-10-22T04:46:35.853Z,95.50
2022-10-22T04:49:04.669Z,98.50
2022-10-22T04:51:32.885Z,96.40
2022-10-22T04:54:00.603Z,122.50
2022-10-22T04:56:31.040Z,106.40
2022-10-22T04:59:03.149Z,109.10
2022-10-22T05:01:40.161Z,126.90
2022-10-22T05:04:15.629Z,112.70
2022-10-22T05:06:44.119Z,109.70
2022-10-22T05:09:17.261Z,116.20
2022-10-22T05:11:48.789Z,117.30
2022-10-22T05:14:21.034Z,149.00
2022-10-22T05:16:50.266Z,168.00
2022-10-22T05:19:25.192Z,113.00
2022-10-22T05:21:56.478Z,123.20
2022-10-22T05:24:26.481Z,140.50
2022-10-22T05:26:57.341Z,119.60
2022-10-22T05:29:26.265Z,146.20
2022-10-22T05:31:54.221Z,129.60
2022-10-22T05:34:21.947Z,130.70
2022-10-22T05:36:49.700Z,135.30
2022-10-22T05:39:17.390Z,150.30
2022-10-22T05:41:45.212Z,158.90
2022-10-22T05:44:13.735Z,159.80
2022-10-22T05:46:43.173Z,154.80
2022-10-22T05:49:14.666Z,154.40
2022-10-22T05:51:43.150Z,152.60
2022-10-22T05:54:20.571Z,160.30
2022-10-22T05:56:48.958Z,175.30
2022-10-22T05:59:16.688Z,163.80
2022-10-22T06:01:44.678Z,161.80
2022-10-22T06:04:13.594Z,163.50
2022-10-22T06:06:48.920Z,158.50
2022-10-22T06:09:35.501Z,175.90
2022-10-22T06:12:03.518Z,166.90
2022-10-22T06:14:32.670Z,204.20
2022-10-22T06:17:00.578Z,155.90
2022-10-22T06:19:29.782Z,142.40
2022-10-22T06:21:57.421Z,153.20
2022-10-22T06:24:25.151Z,186.50
2022-10-22T06:26:53.262Z,163.90
2022-10-22T06:29:21.531Z,156.70
2022-10-22T06:31:49.632Z,162.40
2022-10-22T06:34:18.952Z,165.90
2022-10-22T06:36:47.476Z,162.60
2022-10-22T06:39:17.528Z,185.80
2022-10-22T06:41:45.783Z,191.60
2022-10-22T06:44:18.709Z,171.90
2022-10-22T06:46:53.006Z,174.90
2022-10-22T06:49:21.209Z,186.30
2022-10-22T06:51:53.982Z,165.80
2022-10-22T06:54:23.068Z,178.10
2022-10-22T06:56:50.830Z,179.30
2022-10-22T06:59:18.533Z,166.10
2022-10-22T07:01:46.488Z,173.90
2022-10-22T07:04:15.030Z,163.30
2022-10-22T07:06:42.787Z,174.10
2022-10-22T07:09:10.652Z,155.40
2022-10-22T07:11:44.923Z,195.60
2022-10-22T07:14:14.418Z,159.80
2022-10-22T07:16:43.080Z,155.60
2022-10-22T07:19:11.522Z,161.00
2022-10-22T07:21:39.708Z,169.80
2022-10-22T07:24:07.915Z,167.20
2022-10-22T07:26:36.951Z,156.50
2022-10-22T07:29:05.246Z,167.30
2022-10-22T07:31:33.344Z,142.90
2022-10-22T07:34:01.316Z,135.80
2022-10-22T07:36:29.016Z,131.00
2022-10-22T07:38:58.761Z,133.00
2022-10-22T07:41:30.212Z,141.70
2022-10-22T07:43:58.230Z,144.90
2022-10-22T07:46:27.109Z,126.70
2022-10-22T07:48:55.311Z,148.80
2022-10-22T07:51:23.184Z,141.40
2022-10-22T07:53:51.024Z,129.10
2022-10-22T07:56:18.779Z,134.50
2022-10-22T07:58:46.564Z,120.40
2022-10-22T08:01:14.601Z,134.90
2022-10-22T08:03:42.510Z,137.90
2022-10-22T08:06:14.169Z,209.90
2022-10-22T08:08:43.428Z,177.60
2022-10-22T08:11:11.928Z,131.90
2022-10-22T08:13:44.893Z,124.80
2022-10-22T08:16:15.049Z,119.40
2022-10-22T08:18:42.983Z,125.10
2022-10-22T08:21:12.961Z,119.40
2022-10-22T08:23:40.760Z,129.30
2022-10-22T08:26:09.348Z,116.30
2022-10-22T08:28:37.258Z,120.30
2022-10-22T08:31:08.184Z,112.50
2022-10-22T08:33:38.623Z,115.00
2022-10-22T08:36:06.916Z,106.10
2022-10-22T08:38:35.311Z,106.90
2022-10-22T08:41:23.147Z,140.90
2022-10-22T08:44:22.774Z,111.40
2022-10-22T08:47:02.685Z,228.10
2022-10-22T08:49:41.297Z,97.20
2022-10-22T08:52:15.861Z,95.60
2022-10-22T08:54:59.181Z,88.30
2022-10-22T08:57:48.689Z,89.70
2022-10-22T09:00:35.277Z,93.30
2022-10-22T09:03:37.214Z,92.60
2022-10-22T09:06:27.298Z,92.30
2022-10-22T09:08:57.488Z,97.80
2022-10-22T09:11:35.558Z,107.10
2022-10-22T09:14:05.128Z,90.60
2022-10-22T09:16:55.992Z,78.80
2022-10-22T09:19:37.630Z,77.50
2022-10-22T09:22:38.338Z,75.80
2022-10-22T09:25:29.185Z,69.30
2022-10-22T09:27:59.800Z,76.50
2022-10-22T09:30:34.756Z,94.20
2022-10-22T09:33:28.047Z,76.20
2022-10-22T09:36:03.258Z,69.00
2022-10-22T09:38:49.442Z,72.40
2022-10-22T09:41:19.915Z,73.10
2022-10-22T09:43:48.594Z,67.00
2022-10-22T09:46:20.352Z,63.80
2022-10-22T09:49:03.491Z,59.30
2022-10-22T09:54:26.118Z,57.20
2022-10-22T09:56:58.712Z,57.80
2022-10-22T09:59:38.866Z,53.40
2022-10-22T10:02:20.286Z,183.60
2022-10-22T10:04:57.902Z,55.40
2022-10-22T10:07:31.358Z,57.20
2022-10-22T10:09:59.481Z,54.40
2022-10-22T10:12:38.952Z,63.20
2022-10-22T10:15:24.606Z,96.40
2022-10-22T10:18:39.702Z,93.10
2022-10-22T10:21:31.963Z,65.30
2022-10-22T10:24:31.896Z,57.20
2022-10-22T10:27:31.324Z,61.60
2022-10-22T10:30:16.663Z,63.80
2022-10-22T10:33:21.479Z,95.10
2022-10-22T10:35:55.426Z,65.00
2022-10-22T10:38:51.866Z,61.40
2022-10-22T10:42:03.631Z,67.40
2022-10-22T10:45:06.710Z,61.10
2022-10-22T10:48:06.827Z,69.30
2022-10-22T10:50:56.955Z,65.10
2022-10-22T10:54:00.317Z,71.70
2022-10-22T10:56:39.310Z,70.90
2022-10-22T10:59:35.248Z,88.60
2022-10-22T11:02:21.602Z,66.40
2022-10-22T11:05:20.550Z,71.30
2022-10-22T11:08:01.698Z,63.90
2022-10-22T11:10:39.016Z,72.30
2022-10-22T11:13:23.179Z,69.40
2022-10-22T11:16:17.609Z,75.30
2022-10-22T11:19:03.443Z,506.20
2022-10-22T11:21:50.062Z,187.80
2022-10-22T11:24:39.995Z,68.20
2022-10-22T11:27:25.386Z,68.80
2022-10-22T11:30:02.754Z,76.60
2022-10-22T11:32:33.226Z,97.00
2022-10-22T11:35:09.027Z,76.50
2022-10-22T11:37:39.102Z,99.40
2022-10-22T11:40:22.153Z,85.60
2022-10-22T11:42:56.672Z,100.10
2022-10-22T11:45:24.275Z,85.40
2022-10-22T11:47:58.597Z,72.40
2022-10-22T11:50:42.582Z,78.90
2022-10-22T11:53:13.370Z,79.90
2022-10-22T11:55:48.432Z,79.20
2022-10-22T11:58:43.802Z,80.50
2022-10-22T12:01:11.526Z,89.00
2022-10-22T12:03:43.867Z,119.90
2022-10-22T12:06:19.768Z,86.00
2022-10-22T12:08:56.930Z,125.30
2022-10-22T12:11:40.183Z,90.40
2022-10-22T12:14:32.508Z,81.70
2022-10-22T12:17:17.795Z,124.10
2022-10-22T12:19:51.105Z,78.30
2022-10-22T12:22:25.857Z,75.00
2022-10-22T12:25:00.706Z,83.20
2022-10-22T12:27:38.912Z,72.30
2022-10-22T12:30:21.145Z,108.40
2022-10-22T12:32:56.132Z,183.60
2022-10-22T12:35:29.266Z,96.50
2022-10-22T12:38:02.134Z,83.90
2022-10-22T12:43:14.220Z,62.80
2022-10-22T12:45:45.706Z,56.50
2022-10-22T12:48:29.490Z,53.70
2022-10-22T12:51:05.469Z,48.20
2022-10-22T12:53:37.809Z,50.40
2022-10-22T12:56:11.996Z,48.30
2022-10-22T12:58:57.659Z,54.70
2022-10-22T13:01:34.543Z,47.70
2022-10-22T13:04:17.103Z,50.40
2022-10-22T13:06:52.110Z,50.50
2022-10-22T13:09:27.485Z,46.40
2022-10-22T13:12:04.502Z,46.00
2022-10-22T13:14:38.179Z,50.40
2022-10-22T13:17:19.889Z,52.90
2022-10-22T13:19:53.325Z,46.70
2022-10-22T13:22:36.992Z,47.10
2022-10-22T13:25:40.518Z,45.00
2022-10-22T13:28:08.121Z,46.00
2022-10-22T13:30:38.461Z,55.50
2022-10-22T13:33:34.679Z,53.50
2022-10-22T13:36:03.062Z,54.30
2022-10-22T13:38:30.950Z,55.10
2022-10-22T13:40:59.411Z,58.50
2022-10-22T13:43:27.090Z,61.00
2022-10-22T13:45:59.168Z,56.60
2022-10-22T13:48:29.733Z,56.60
2022-10-22T13:50:57.586Z,59.20
2022-10-22T13:53:28.264Z,59.40
2022-10-22T13:55:56.197Z,83.00
2022-10-22T13:58:25.227Z,60.50
2022-10-22T14:00:59.644Z,61.40
2022-10-22T14:03:33.835Z,63.00
2022-10-22T14:06:01.507Z,61.50
2022-10-22T14:08:29.417Z,68.80
2022-10-22T14:10:57.412Z,64.80
2022-10-22T14:13:25.524Z,74.40
2022-10-22T14:15:53.246Z,77.20
2022-10-22T14:18:27.261Z,70.40
2022-10-22T14:20:58.809Z,76.60
2022-10-22T14:23:32.066Z,76.10
2022-10-22T14:26:01.072Z,77.30
2022-10-22T14:28:29.788Z,128.90
2022-10-22T14:30:59.703Z,79.40
2022-10-22T14:33:33.566Z,69.40
2022-10-22T14:36:01.425Z,84.10
2022-10-22T14:38:29.386Z,77.40
2022-10-22T14:40:59.509Z,83.10
2022-10-22T14:43:31.213Z,87.90
2022-10-22T14:45:59.276Z,85.20
2022-10-22T14:48:26.942Z,82.20
2022-10-22T14:50:55.057Z,84.20
2022-10-22T14:53:22.794Z,85.80
2022-10-22T14:55:51.540Z,77.70
2022-10-22T14:58:19.417Z,82.70
2022-10-22T15:00:47.268Z,82.10
2022-10-22T15:03:14.961Z,83.00
2022-10-22T15:05:44.794Z,77.20
2022-10-22T15:08:14.789Z,81.60
2022-10-22T15:10:42.646Z,78.00
2022-10-22T15:13:10.402Z,84.80
2022-10-22T15:15:41.182Z,73.60
2022-10-22T15:18:08.865Z,82.10
2022-10-22T15:20:36.561Z,71.90
2022-10-22T15:23:04.238Z,74.90
2022-10-22T15:25:31.974Z,74.20
2022-10-22T15:28:03.353Z,75.60
2022-10-22T15:30:35.233Z,66.50
2022-10-22T15:33:03.068Z,74.30
2022-10-22T15:35:30.749Z,69.10
2022-10-22T15:37:58.404Z,72.70
2022-10-22T15:40:26.227Z,74.20
2022-10-22T15:42:53.894Z,65.50
2022-10-22T15:45:22.484Z,68.80
2022-10-22T15:47:50.743Z,65.70
2022-10-22T15:50:18.594Z,69.20
2022-10-22T15:52:46.316Z,58.80
2022-10-22T15:55:14.186Z,68.20
2022-10-22T15:57:42.024Z,69.20
2022-10-22T16:00:10.956Z,59.90
2022-10-22T16:02:43.705Z,64.20
2022-10-22T16:05:11.473Z,61.30
2022-10-22T16:07:39.283Z,69.20
2022-10-22T16:10:07.915Z,66.40
2022-10-22T16:12:35.992Z,85.20
2022-10-22T16:15:04.182Z,72.10
2022-10-22T16:17:31.994Z,76.80
2022-10-22T16:19:59.668Z,72.50
2022-10-22T16:22:27.428Z,65.70
2022-10-22T16:24:55.125Z,67.70
2022-10-22T16:27:26.574Z,64.50
2022-10-22T16:29:54.403Z,70.20
2022-10-22T16:32:23.034Z,78.40
2022-10-22T16:34:50.783Z,76.10
2022-10-22T16:37:18.628Z,65.30
2022-10-22T16:39:46.305Z,67.90
2022-10-22T16:42:13.936Z,53.20
2022-10-22T16:44:41.780Z,72.30
2022-10-22T16:47:09.483Z,77.70
2022-10-22T16:49:37.203Z,81.80
2022-10-22T16:52:04.975Z,68.60
2022-10-22T16:54:32.633Z,76.40
2022-10-22T16:57:00.240Z,75.50
2022-10-22T16:59:28.017Z,83.80
2022-10-22T17:01:55.693Z,76.40
2022-10-22T17:04:23.683Z,74.70
2022-10-22T17:06:51.339Z,78.20
2022-10-22T17:09:19.270Z,73.30
2022-10-22T17:11:47.326Z,68.60
2022-10-22T17:14:15.171Z,78.70
2022-10-22T17:16:43.219Z,69.90
2022-10-22T17:19:14.140Z,77.50
2022-10-22T17:21:42.936Z,70.30
2022-10-22T17:24:10.755Z,79.50
2022-10-22T17:26:38.473Z,73.00
2022-10-22T17:29:06.700Z,78.00
2022-10-22T17:31:39.270Z,73.60
2022-10-22T17:34:14.581Z,189.20
2022-10-22T17:36:43.816Z,69.00
2022-10-22T17:39:17.596Z,74.60
2022-10-22T17:41:45.902Z,76.10
2022-10-22T17:44:15.510Z,69.90
2022-10-22T17:46:44.094Z,67.70
2022-10-22T17:49:19.016Z,66.80
2022-10-22T17:51:47.088Z,80.30
2022-10-22T17:54:15.161Z,68.10
2022-10-22T17:56:42.996Z,80.00
2022-10-22T17:59:14.581Z,114.40
2022-10-22T18:01:47.564Z,106.00
2022-10-22T18:04:19.933Z,80.30
2022-10-22T18:06:47.935Z,78.20
2022-10-22T18:09:18.729Z,84.50
2022-10-22T18:11:53.122Z,68.20
2022-10-22T18:14:23.202Z,78.80
2022-10-22T18:16:52.274Z,82.30
2022-10-22T18:19:23.209Z,72.60
2022-10-22T18:21:51.008Z,82.90
2022-10-22T18:24:18.982Z,77.00
2022-10-22T18:26:46.776Z,87.30
2022-10-22T18:29:18.378Z,75.60
2022-10-22T18:31:47.373Z,76.60
2022-10-22T18:34:17.695Z,75.20
2022-10-22T18:36:48.333Z,64.40
2022-10-22T18:39:16.717Z,61.90
2022-10-22T18:41:44.404Z,59.10
2022-10-22T18:44:15.113Z,57.80
2022-10-22T18:46:42.927Z,61.70
2022-10-22T18:49:18.838Z,62.00
2022-10-22T18:51:52.436Z,56.80
2022-10-22T18:54:23.935Z,59.80
2022-10-22T18:56:55.555Z,59.70
2022-10-22T18:59:27.137Z,69.80
2022-10-22T19:01:59.392Z,64.90
2022-10-22T19:04:33.491Z,65.50
2022-10-22T19:07:01.268Z,56.80
2022-10-22T19:09:29.206Z,62.80
2022-10-22T19:11:56.970Z,65.70
2022-10-22T19:14:24.690Z,64.50
2022-10-22T19:16:52.680Z,67.10
2022-10-22T19:19:21.935Z,67.70
2022-10-22T19:21:50.508Z,183.50
2022-10-22T19:24:20.071Z,66.30
2022-10-22T19:26:49.336Z,64.50
2022-10-22T19:29:20.565Z,88.50
2022-10-22T19:31:50.981Z,66.50
2022-10-22T19:34:20.291Z,74.40
2022-10-22T19:36:51.764Z,69.60
2022-10-22T19:39:20.203Z,61.60
2022-10-22T19:41:47.879Z,68.10
2022-10-22T19:44:15.776Z,66.40
2022-10-22T19:46:43.421Z,64.50
2022-10-22T19:49:11.163Z,62.80
2022-10-22T19:51:40.210Z,68.60
2022-10-22T19:54:15.626Z,71.00
2022-10-22T19:56:43.808Z,79.30
2022-10-22T19:59:13.654Z,78.00
2022-10-22T20:01:42.079Z,70.50
2022-10-22T20:04:16.089Z,67.50
2022-10-22T20:06:44.469Z,58.40
2022-10-22T20:09:13.757Z,76.00
2022-10-22T20:11:41.500Z,78.10
2022-10-22T20:14:09.206Z,83.90
2022-10-22T20:16:36.988Z,71.70
2022-10-22T20:19:07.784Z,76.50
2022-10-22T20:21:35.610Z,85.50
2022-10-22T20:24:04.252Z,88.60
2022-10-22T20:26:32.289Z,82.60
2022-10-22T20:29:00.211Z,76.10
2022-10-22T20:31:29.494Z,79.50
2022-10-22T20:33:59.268Z,125.10
2022-10-22T20:36:28.982Z,91.80
2022-10-22T20:39:07.033Z,81.30
2022-10-22T20:41:37.863Z,84.50
2022-10-22T20:44:10.817Z,88.50
2022-10-22T20:49:14.061Z,80.00
2022-10-22T20:51:42.271Z,84.90
2022-10-22T20:54:10.928Z,99.30
2022-10-22T20:56:40.825Z,99.60
2022-10-22T20:59:11.918Z,99.60
2022-10-22T21:01:44.571Z,105.20
2022-10-22T21:04:12.715Z,289.00
2022-10-22T21:06:42.814Z,122.60
2022-10-22T21:09:13.794Z,121.40
2022-10-22T21:11:42.951Z,111.50
2022-10-22T21:14:13.022Z,112.50
2022-10-22T21:16:46.987Z,110.10
2022-10-22T21:19:14.909Z,132.30
2022-10-22T21:21:42.537Z,135.50
2022-10-22T21:24:10.718Z,157.60
2022-10-22T21:26:43.086Z,189.50
2022-10-22T21:29:12.699Z,232.70
2022-10-22T21:31:40.516Z,183.70
2022-10-22T21:34:08.415Z,213.60
2022-10-22T21:36:36.112Z,220.30
2022-10-22T21:39:04.146Z,239.90
2022-10-22T21:41:32.358Z,264.30
2022-10-22T21:44:00.040Z,317.40
2022-10-22T21:46:29.470Z,269.30
2022-10-22T21:49:03.994Z,265.60
2022-10-22T21:51:35.753Z,200.20
2022-10-22T21:54:04.709Z,221.40
2022-10-22T21:56:35.810Z,237.30
2022-10-22T21:59:05.601Z,208.80
2022-10-22T22:01:33.817Z,265.80
2022-10-22T22:04:02.151Z,213.90
2022-10-22T22:06:33.542Z,267.40
2022-10-22T22:09:04.463Z,278.10
2022-10-22T22:11:32.684Z,253.20
2022-10-22T22:14:00.396Z,252.20
2022-10-22T22:16:31.532Z,242.30
2022-10-22T22:19:07.193Z,250.40
2022-10-22T22:21:39.252Z,324.20
2022-10-22T22:24:10.820Z,285.30
2022-10-22T22:26:39.328Z,496.10
2022-10-22T22:29:07.045Z,245.00
2022-10-22T22:31:35.915Z,299.70
2022-10-22T22:34:08.265Z,351.60
2022-10-22T22:36:39.858Z,225.30
2022-10-22T22:39:12.395Z,311.70
2022-10-22T22:41:42.350Z,278.10
2022-10-22T22:44:10.348Z,253.60
2022-10-22T22:46:38.302Z,307.40
2022-10-22T22:49:08.503Z,220.50
2022-10-22T22:51:36.270Z,231.30
2022-10-22T22:54:04.069Z,224.00
2022-10-22T22:56:34.214Z,235.20
2022-10-22T22:59:03.748Z,177.30
2022-10-22T23:01:34.948Z,204.40
2022-10-22T23:04:18.877Z,222.80
2022-10-22T23:06:46.621Z,199.10
2022-10-22T23:09:16.853Z,194.70
2022-10-22T23:11:46.605Z,295.30
2022-10-22T23:14:17.599Z,185.50
2022-10-22T23:16:49.601Z,191.70
2022-10-22T23:19:21.270Z,177.10
2022-10-22T23:21:53.126Z,216.10
2022-10-22T23:24:27.873Z,225.90
2022-10-22T23:26:59.697Z,301.80
2022-10-22T23:29:30.658Z,191.70
2022-10-22T23:32:05.506Z,181.50
2022-10-22T23:34:33.345Z,278.90
2022-10-22T23:37:00.990Z,198.60
2022-10-22T23:39:29.519Z,341.80
2022-10-22T23:41:58.052Z,299.80
2022-10-22T23:44:25.899Z,230.10
2022-10-22T23:46:54.032Z,204.90
2022-10-22T23:49:21.771Z,212.30
2022-10-22T23:51:49.402Z,230.70
2022-10-22T23:54:18.565Z,232.50
2022-10-22T23:56:46.671Z,304.10
